Time;durP1;ratioP1;P1;durP2;ratioP2;P2;SDS_P1;SDS_P2;PMS_P1;PMS_P2;Temp;Humidity;BMP_temperature;BMP_pressure;BME280_temperature;BME280_humidity;BME280_pressure;Samples;Min_cycle;Max_cycle;Signal;HPM_P1;HPM_P2
2022/08/09 00:02:13;;;;;;;3.80;1.05;;;;;;;27.16;41.60;101208.50;4847206;23;20555;-55
2022/08/09 00:04:39;;;;;;;3.53;1.00;;;;;;;27.20;40.99;101206.72;4842234;29;20026;-56
2022/08/09 00:07:05;;;;;;;2.35;0.90;;;;;;;26.72;42.42;101202.50;4842413;29;20427;-54
2022/08/09 00:09:32;;;;;;;3.15;1.30;;;;;;;26.26;43.63;101206.13;4842403;29;20026;-55
2022/08/09 00:11:58;;;;;;;2.15;0.98;;;;;;;26.32;43.69;101204.09;4842050;29;20029;-55
2022/08/09 00:14:24;;;;;;;5.85;1.00;;;;;;;26.47;44.07;101203.00;4842347;29;20040;-54
2022/08/09 00:16:50;;;;;;;2.85;1.15;;;;;;;26.45;43.92;101202.50;4841914;29;20032;-54
2022/08/09 00:19:16;;;;;;;5.57;1.00;;;;;;;26.36;43.82;101193.31;4826830;29;20091;-55
2022/08/09 00:21:43;;;;;;;4.45;1.13;;;;;;;26.39;44.17;101203.69;4823565;29;20027;-55
2022/08/09 00:24:09;;;;;;;5.00;1.30;;;;;;;26.28;44.14;101197.56;4823581;29;20038;-55
2022/08/09 00:26:35;;;;;;;2.30;1.00;;;;;;;26.23;43.55;101194.91;4806824;29;20030;-55
2022/08/09 00:29:02;;;;;;;4.00;1.05;;;;;;;25.76;45.35;101199.56;4829234;29;20448;-55
2022/08/09 00:31:29;;;;;;;2.08;0.95;;;;;;;25.46;46.58;101204.38;4841755;29;20041;-56
2022/08/09 00:33:56;;;;;;;4.20;1.23;;;;;;;25.44;46.93;101200.31;4836708;29;20054;-55
2022/08/09 00:36:23;;;;;;;2.60;1.00;;;;;;;25.86;46.81;101206.81;4828721;29;20086;-56
2022/08/09 00:38:50;;;;;;;3.97;1.10;;;;;;;25.76;45.33;101202.31;4823893;29;20038;-57
2022/08/09 00:41:19;;;;;;;5.13;1.40;;;;;;;25.47;46.40;101205.19;4823146;29;20496;-57
2022/08/09 00:43:45;;;;;;;2.88;1.33;;;;;;;25.15;47.31;101203.19;4823414;29;20064;-56
2022/08/09 00:46:12;;;;;;;5.30;1.50;;;;;;;25.47;47.39;101197.78;4822970;29;20034;-56
2022/08/09 00:48:38;;;;;;;3.58;1.20;;;;;;;25.38;47.28;101196.03;4823517;29;20308;-56
2022/08/09 00:51:08;;;;;;;4.40;1.33;;;;;;;24.77;48.88;101196.84;4822539;29;20114;-56
2022/08/09 00:53:38;;;;;;;4.57;1.00;;;;;;;24.53;48.64;101196.81;4813512;29;20044;-56
2022/08/09 00:56:06;;;;;;;2.92;1.00;;;;;;;24.77;48.73;101188.63;4822739;29;20042;-56
2022/08/09 00:58:34;;;;;;;2.38;1.27;;;;;;;24.61;48.46;101193.47;4823090;29;20444;-56
2022/08/09 01:01:06;;;;;;;2.97;1.27;;;;;;;24.59;48.99;101196.47;4822933;29;20058;-56
2022/08/09 01:03:37;;;;;;;4.45;1.10;;;;;;;24.59;49.47;101198.38;4824913;29;20396;-56
2022/08/09 01:06:19;;;;;;;5.00;1.48;;;;;;;24.63;49.22;101189.31;4817427;29;20035;-56
2022/08/09 01:08:59;;;;;;;3.10;1.48;;;;;;;24.52;50.09;101192.47;4808497;29;20546;-57
2022/08/09 01:11:50;;;;;;;3.25;1.00;;;;;;;24.38;50.30;101195.91;4810821;29;20041;-56
2022/08/09 01:14:49;;;;;;;2.05;1.17;;;;;;;24.42;49.63;101188.72;4804629;29;20093;-56
2022/08/09 01:17:22;;;;;;;2.47;1.20;;;;;;;24.51;49.56;101182.63;4815994;29;20159;-56
2022/08/09 01:19:51;;;;;;;3.03;1.17;;;;;;;24.68;49.55;101188.44;4833505;29;20045;-56
2022/08/09 01:22:42;;;;;;;5.40;1.40;;;;;;;24.88;49.01;101184.66;4811936;29;20026;-56
2022/08/09 01:25:32;;;;;;;2.40;0.90;;;;;;;24.53;49.29;101180.41;4810486;29;20045;-56
2022/08/09 01:28:00;;;;;;;4.85;1.13;;;;;;;24.25;48.87;101188.31;4804186;29;20439;-56
2022/08/09 01:30:30;;;;;;;3.10;1.08;;;;;;;24.21;49.83;101182.63;4818027;29;20115;-56
2022/08/09 01:32:58;;;;;;;2.97;1.10;;;;;;;24.33;49.87;101182.25;4814950;29;20306;-56
2022/08/09 01:35:58;;;;;;;4.25;1.08;;;;;;;24.28;49.79;101187.75;4804100;29;20121;-56
2022/08/09 01:38:28;;;;;;;3.63;1.38;;;;;;;24.74;49.65;101181.78;4804626;29;20035;-56
2022/08/09 01:41:16;;;;;;;3.83;1.60;;;;;;;24.49;50.25;101183.72;4804753;29;20473;-56
2022/08/09 01:43:46;;;;;;;3.15;1.10;;;;;;;24.85;48.81;101177.81;4810329;29;20035;-56
2022/08/09 01:46:13;;;;;;;3.67;1.25;;;;;;;24.80;48.33;101169.66;4803830;29;20038;-56
2022/08/09 01:48:41;;;;;;;3.92;1.20;;;;;;;25.07;48.24;101177.28;4804322;29;20035;-56
2022/08/09 01:51:09;;;;;;;5.72;2.35;;;;;;;25.22;47.73;101181.75;4804355;29;20027;-56
2022/08/09 01:53:37;;;;;;;2.88;1.17;;;;;;;25.42;47.15;101175.13;4803969;29;20062;-56
2022/08/09 01:56:05;;;;;;;10.32;1.58;;;;;;;25.33;46.60;101183.22;4804057;29;20390;-56
2022/08/09 01:58:32;;;;;;;3.60;1.38;;;;;;;25.22;47.08;101176.25;4804441;29;20088;-56
2022/08/09 02:01:00;;;;;;;4.65;1.30;;;;;;;25.28;47.37;101175.88;4808325;29;20066;-56
2022/08/09 02:03:29;;;;;;;4.78;1.15;;;;;;;25.37;46.88;101173.28;4804302;29;20481;-56
2022/08/09 02:05:57;;;;;;;2.50;0.90;;;;;;;25.26;47.46;101178.13;4803902;29;20417;-56
2022/08/09 02:08:24;;;;;;;3.40;1.30;;;;;;;25.35;46.93;101185.66;4805064;29;20027;-56
2022/08/09 02:10:54;;;;;;;4.50;1.20;;;;;;;25.29;47.30;101179.44;4807545;29;20031;-56
2022/08/09 02:13:24;;;;;;;3.28;1.63;;;;;;;24.86;48.46;101184.09;4807553;29;20030;-56
2022/08/09 02:15:54;;;;;;;3.72;1.50;;;;;;;24.60;49.40;101189.09;4807219;29;20108;-56
2022/08/09 02:18:25;;;;;;;5.38;1.10;;;;;;;24.94;48.53;101197.16;4810423;29;20143;-56
2022/08/09 02:20:57;;;;;;;3.55;1.20;;;;;;;24.88;48.52;101192.84;4808016;29;20027;-56
2022/08/09 02:23:29;;;;;;;3.55;1.30;;;;;;;24.77;48.72;101192.16;4814888;29;20062;-56
2022/08/09 02:25:59;;;;;;;6.03;1.50;;;;;;;24.94;48.32;101199.91;4813145;29;20099;-56
2022/08/09 02:28:29;;;;;;;5.78;1.50;;;;;;;24.88;48.62;101199.16;4811814;29;20452;-56
2022/08/09 02:31:04;;;;;;;6.60;1.30;;;;;;;24.85;49.05;101210.66;4813560;29;20039;-56
2022/08/09 02:33:36;;;;;;;4.00;1.70;;;;;;;24.99;48.74;101200.66;4809102;29;20026;-56
2022/08/09 02:36:06;;;;;;;4.15;1.45;;;;;;;24.77;48.72;101211.34;4812295;29;20038;-56
2022/08/09 02:38:40;;;;;;;3.72;1.50;;;;;;;24.65;48.69;101214.50;4821947;29;20037;-56
2022/08/09 02:41:12;;;;;;;3.85;1.30;;;;;;;24.22;50.29;101208.88;4843646;29;20144;-56
2022/08/09 02:43:44;;;;;;;8.73;2.20;;;;;;;23.67;52.17;101208.25;4843890;29;20394;-56
2022/08/09 02:46:12;;;;;;;6.50;1.60;;;;;;;23.68;51.70;101211.81;4817428;29;20074;-56
2022/08/09 02:48:40;;;;;;;2.22;1.40;;;;;;;22.97;53.32;101217.66;4815937;29;20490;-56
2022/08/09 02:51:10;;;;;;;3.00;1.30;;;;;;;22.91;54.15;101220.41;4813789;29;20045;-56
2022/08/09 02:53:43;;;;;;;5.43;1.48;;;;;;;22.71;54.66;101223.19;4812354;29;20101;-56
2022/08/09 02:56:10;;;;;;;5.05;2.08;;;;;;;22.66;55.20;101236.84;4814358;29;20069;-56
2022/08/09 02:58:38;;;;;;;4.68;1.77;;;;;;;22.16;56.79;101227.66;4825070;29;20030;-56
2022/08/09 03:01:08;;;;;;;3.67;1.38;;;;;;;21.88;55.78;101243.44;4839422;29;20106;-56
2022/08/09 03:03:39;;;;;;;7.07;1.80;;;;;;;21.94;57.57;101240.72;4842998;29;20530;-56
2022/08/09 03:06:07;;;;;;;4.63;2.08;;;;;;;21.44;59.35;101251.28;4813034;29;20035;-56
2022/08/09 03:08:36;;;;;;;4.55;1.75;;;;;;;21.51;59.16;101238.22;4817309;29;20038;-56
2022/08/09 03:11:03;;;;;;;2.58;1.90;;;;;;;21.39;59.30;101253.16;4824746;29;20054;-56
2022/08/09 03:13:30;;;;;;;3.28;1.80;;;;;;;21.65;58.53;101256.75;4824465;29;20035;-56
2022/08/09 03:15:56;;;;;;;4.05;1.70;;;;;;;21.69;58.35;101260.56;4823177;29;20062;-59
2022/08/09 03:18:23;;;;;;;5.25;1.50;;;;;;;21.56;59.14;101259.19;4809684;29;20438;-56
2022/08/09 03:20:51;;;;;;;5.43;1.67;;;;;;;21.59;59.52;101256.72;4811091;29;20054;-56
2022/08/09 03:23:20;;;;;;;7.93;1.85;;;;;;;21.55;59.10;101263.00;4806435;29;20043;-56
2022/08/09 03:25:48;;;;;;;7.32;2.00;;;;;;;21.46;59.51;101268.16;4812901;29;20031;-57
2022/08/09 03:28:15;;;;;;;6.60;1.88;;;;;;;21.13;60.23;101268.56;4824865;29;20030;-56
2022/08/09 03:30:42;;;;;;;4.45;1.58;;;;;;;21.07;60.60;101254.91;4842925;29;20121;-56
2022/08/09 03:33:10;;;;;;;3.75;1.80;;;;;;;21.06;60.76;101247.03;4842609;29;20033;-56
2022/08/09 03:35:36;;;;;;;5.82;1.85;;;;;;;21.07;60.74;101254.09;4841945;29;20030;-56
2022/08/09 03:38:03;;;;;;;4.82;1.95;;;;;;;20.48;62.64;101260.56;4823978;29;20389;-56
2022/08/09 03:40:29;;;;;;;4.88;2.10;;;;;;;20.57;62.41;101260.91;4805800;29;20029;-56
2022/08/09 03:42:56;;;;;;;5.82;2.00;;;;;;;20.80;61.71;101255.06;4807057;29;20022;-56
2022/08/09 03:45:22;;;;;;;4.35;2.08;;;;;;;20.73;61.78;101267.25;4805400;29;20377;-56
2022/08/09 03:47:48;;;;;;;5.35;2.00;;;;;;;20.63;62.60;101269.91;4805957;29;20097;-57
2022/08/09 03:50:16;;;;;;;5.03;1.73;;;;;;;20.82;61.87;101269.22;4805656;29;20031;-56
2022/08/09 03:52:43;;;;;;;5.88;1.50;;;;;;;20.75;61.55;101265.91;4805978;29;20031;-56
2022/08/09 03:55:12;;;;;;;5.65;1.88;;;;;;;20.82;61.75;101263.78;4805799;29;20026;-56
2022/08/09 03:57:39;;;;;;;5.35;1.70;;;;;;;20.97;59.21;101275.81;4808938;29;20050;-56
2022/08/09 04:00:06;;;;;;;4.05;1.52;;;;;;;20.85;59.77;101267.06;4813763;29;20027;-56
2022/08/09 04:02:33;;;;;;;3.25;1.20;;;;;;;20.59;57.97;101269.63;4805872;29;20168;-56
2022/08/09 04:05:01;;;;;;;3.30;1.50;;;;;;;20.52;59.45;101274.47;4808289;29;20034;-56
2022/08/09 04:07:29;;;;;;;2.05;0.98;;;;;;;20.33;58.85;101274.03;4805585;29;20530;-56
2022/08/09 04:09:55;;;;;;;4.75;1.10;;;;;;;20.47;58.61;101277.16;4805656;29;20027;-56
2022/08/09 04:12:45;;;;;;;1.52;1.13;;;;;;;20.50;58.65;101276.66;4805546;29;20039;-56
2022/08/09 04:15:13;;;;;;;2.83;1.40;;;;;;;20.47;60.55;101283.41;4806331;29;20027;-56
2022/08/09 04:17:40;;;;;;;4.00;1.70;;;;;;;20.53;61.40;101276.91;4789253;29;20477;-56
2022/08/09 04:20:08;;;;;;;5.28;1.70;;;;;;;20.54;61.09;101280.47;4805394;29;20027;-56
2022/08/09 04:22:35;;;;;;;6.65;1.85;;;;;;;20.53;61.92;101293.25;4805365;29;20123;-56
2022/08/09 04:25:01;;;;;;;4.60;1.77;;;;;;;20.48;61.81;101289.66;4805084;29;20035;-56
2022/08/09 04:27:28;;;;;;;6.72;1.60;;;;;;;20.40;59.96;101284.69;4805267;29;20039;-56
2022/08/09 04:29:54;;;;;;;2.90;1.25;;;;;;;20.38;61.17;101289.59;4805294;29;20035;-56
2022/08/09 04:32:20;;;;;;;1.80;1.10;;;;;;;20.32;59.46;101285.97;4806077;29;20443;-56
2022/08/09 04:34:46;;;;;;;1.65;0.90;;;;;;;20.17;58.27;101294.03;4804601;29;20027;-56
2022/08/09 04:37:12;;;;;;;3.03;1.10;;;;;;;20.13;58.28;101296.44;4804908;29;20043;-56
2022/08/09 04:39:39;;;;;;;1.40;1.25;;;;;;;20.08;58.60;101290.94;4805445;29;20109;-56
2022/08/09 04:42:05;;;;;;;2.17;1.48;;;;;;;20.13;58.16;101299.16;4817362;29;20057;-56
2022/08/09 04:44:32;;;;;;;1.60;1.20;;;;;;;20.04;58.34;101303.41;4822863;29;20349;-56
2022/08/09 04:46:58;;;;;;;8.20;4.60;;;;;;;20.06;58.46;101308.59;4821323;29;20042;-56
2022/08/09 04:49:25;;;;;;;2.80;2.00;;;;;;;20.02;58.69;101303.66;4819974;29;20133;-56
2022/08/09 04:51:51;;;;;;;2.75;1.13;;;;;;;19.82;59.47;101306.19;4804299;29;20114;-56
2022/08/09 04:54:18;;;;;;;3.28;1.42;;;;;;;19.94;58.81;101315.03;4804311;29;20030;-56
2022/08/09 04:56:45;;;;;;;4.03;1.80;;;;;;;19.95;58.88;101313.94;4803563;29;20072;-57
2022/08/09 04:59:11;;;;;;;2.28;1.13;;;;;;;20.06;58.71;101320.28;4803609;29;20054;-56
2022/08/09 05:01:37;;;;;;;3.33;1.85;;;;;;;20.00;58.89;101318.59;4803774;29;20130;-56
2022/08/09 05:04:03;;;;;;;2.42;1.85;;;;;;;19.97;58.30;101328.06;4803396;29;20436;-56
2022/08/09 05:06:29;;;;;;;2.85;1.42;;;;;;;20.02;58.19;101327.31;4804605;29;20023;-56
2022/08/09 05:08:56;;;;;;;2.25;1.30;;;;;;;19.87;58.83;101327.16;4804496;29;20030;-56
2022/08/09 05:11:22;;;;;;;4.15;1.10;;;;;;;19.83;58.82;101326.84;4806247;29;20042;-56
2022/08/09 05:13:48;;;;;;;2.42;1.27;;;;;;;19.72;59.26;101323.22;4803988;29;20113;-57
2022/08/09 05:16:14;;;;;;;2.40;1.30;;;;;;;19.51;59.77;101324.03;4803384;29;20477;-56
2022/08/09 05:18:41;;;;;;;3.15;1.17;;;;;;;19.63;59.75;101327.44;4805109;29;20118;-56
2022/08/09 05:21:07;;;;;;;1.90;1.30;;;;;;;19.70;59.16;101332.69;4804312;29;20077;-56
2022/08/09 05:23:33;;;;;;;2.47;1.20;;;;;;;19.80;59.11;101324.66;4802677;29;20042;-56
2022/08/09 05:25:59;;;;;;;2.13;1.17;;;;;;;19.61;59.59;101318.75;4803059;29;20039;-56
2022/08/09 05:28:25;;;;;;;4.93;1.70;;;;;;;19.60;59.25;101311.69;4804107;29;20027;-56
2022/08/09 05:30:52;;;;;;;1.48;1.10;;;;;;;19.74;59.03;101312.91;4814645;29;20396;-56
2022/08/09 05:33:19;;;;;;;1.20;0.90;;;;;;;19.61;59.36;101316.03;4804016;29;20030;-56
2022/08/09 05:35:45;;;;;;;14.88;8.43;;;;;;;19.88;58.73;101309.81;4804421;29;20102;-56
2022/08/09 05:38:11;;;;;;;12.27;6.53;;;;;;;19.69;59.09;101310.13;4804071;29;20035;-56
2022/08/09 05:40:38;;;;;;;5.90;2.67;;;;;;;19.54;59.33;101312.63;4806932;29;20044;-56
2022/08/09 05:43:04;;;;;;;6.18;3.50;;;;;;;19.63;59.32;101305.72;4807486;29;20027;-56
2022/08/09 05:45:30;;;;;;;3.13;1.50;;;;;;;19.55;59.25;101306.16;4818393;29;20119;-56
2022/08/09 05:47:56;;;;;;;6.20;3.67;;;;;;;19.48;59.49;101305.50;4808011;29;20023;-55
2022/08/09 05:50:24;;;;;;;5.93;4.10;;;;;;;19.42;59.37;101309.25;4820841;29;20038;-56
2022/08/09 05:52:51;;;;;;;2.85;2.05;;;;;;;19.37;59.94;101307.28;4824543;29;20034;-56
2022/08/09 05:55:18;;;;;;;2.67;1.30;;;;;;;19.24;60.41;101304.97;4825335;29;20037;-56
2022/08/09 05:57:44;;;;;;;2.15;1.17;;;;;;;19.26;60.07;101306.34;4818279;29;20027;-56
2022/08/09 06:00:14;;;;;;;1.88;0.90;;;;;;;19.16;60.54;101308.94;4807469;29;20621;-56
2022/08/09 06:02:40;;;;;;;2.13;1.00;;;;;;;19.40;59.91;101297.84;4807345;29;20485;-56
2022/08/09 06:05:07;;;;;;;4.63;1.10;;;;;;;19.35;59.82;101303.19;4804902;29;20106;-56
2022/08/09 06:07:34;;;;;;;3.33;1.38;;;;;;;19.30;60.59;101308.56;4813049;29;20492;-56
2022/08/09 06:10:01;;;;;;;3.80;1.30;;;;;;;19.25;60.75;101306.59;4821341;29;20062;-56
2022/08/09 06:12:27;;;;;;;5.38;1.90;;;;;;;19.16;62.96;101303.53;4808986;29;20042;-56
2022/08/09 06:14:53;;;;;;;6.45;2.28;;;;;;;19.26;63.79;101300.09;4807298;29;20031;-56
2022/08/09 06:17:19;;;;;;;5.57;2.45;;;;;;;19.22;64.27;101302.50;4805433;29;20074;-56
2022/08/09 06:19:46;;;;;;;6.43;3.08;;;;;;;19.46;64.29;101305.78;4807608;29;20125;-56
2022/08/09 06:22:12;;;;;;;9.25;5.10;;;;;;;19.41;63.94;101304.91;4806601;29;20039;-56
2022/08/09 06:24:38;;;;;;;10.50;5.03;;;;;;;18.98;65.48;101295.66;4805322;29;20099;-56
2022/08/09 06:27:04;;;;;;;6.03;3.17;;;;;;;19.01;65.59;101299.78;4807346;29;20074;-56
2022/08/09 06:29:30;;;;;;;8.75;2.38;;;;;;;18.95;65.76;101298.88;4810813;29;20030;-56
2022/08/09 06:31:57;;;;;;;4.50;2.13;;;;;;;18.59;66.72;101301.03;4825531;29;20073;-56
2022/08/09 06:34:23;;;;;;;4.65;2.28;;;;;;;18.34;67.79;101303.38;4813807;29;20035;-56
2022/08/09 06:36:50;;;;;;;3.95;2.42;;;;;;;18.25;68.25;101296.69;4806895;29;20034;-56
2022/08/09 06:39:17;;;;;;;6.80;2.20;;;;;;;17.99;70.14;101307.13;4805900;29;20043;-56
2022/08/09 06:41:43;;;;;;;4.95;2.22;;;;;;;18.06;69.87;101307.78;4806643;29;20421;-56
2022/08/09 06:44:13;;;;;;;4.35;2.20;;;;;;;18.26;69.35;101307.28;4805680;29;20043;-56
2022/08/09 06:46:40;;;;;;;7.88;2.20;;;;;;;18.08;69.53;101305.63;4806797;29;20087;-56
2022/08/09 06:49:06;;;;;;;5.38;2.10;;;;;;;18.05;69.93;101308.84;4807357;29;20018;-56
2022/08/09 06:51:34;;;;;;;5.50;2.42;;;;;;;18.07;69.47;101314.00;4806174;29;20031;-56
2022/08/09 06:54:01;;;;;;;5.70;2.50;;;;;;;17.89;70.34;101312.34;4806020;29;20027;-56
2022/08/09 06:56:27;;;;;;;4.97;2.47;;;;;;;17.99;70.09;101309.81;4805649;29;20039;-56
2022/08/09 06:58:54;;;;;;;5.88;2.58;;;;;;;18.00;69.74;101314.19;4807339;29;20062;-56
2022/08/09 07:01:20;;;;;;;3.05;2.20;;;;;;;17.96;70.37;101309.47;4791765;29;20531;-56
2022/08/09 07:03:46;;;;;;;3.50;1.92;;;;;;;17.96;69.98;101304.88;4805448;29;20031;-56
2022/08/09 07:06:12;;;;;;;5.03;2.58;;;;;;;17.89;70.37;101312.34;4805547;29;20500;-56
2022/08/09 07:08:38;;;;;;;5.10;2.67;;;;;;;17.82;71.19;101301.66;4806066;29;20515;-56
2022/08/09 07:11:05;;;;;;;8.75;2.38;;;;;;;17.39;72.97;101312.97;4806602;29;20067;-56
2022/08/09 07:13:31;;;;;;;4.93;3.08;;;;;;;17.38;72.86;101306.75;4805164;29;20538;-56
2022/08/09 07:15:57;;;;;;;6.47;2.40;;;;;;;17.45;72.69;101311.19;4803408;29;20195;-56
2022/08/09 07:18:24;;;;;;;6.07;2.78;;;;;;;17.56;72.54;101318.47;4806384;29;20037;-56
2022/08/09 07:20:51;;;;;;;4.65;2.45;;;;;;;17.58;72.54;101319.84;4807057;29;20031;-56
2022/08/09 07:23:17;;;;;;;5.32;2.50;;;;;;;17.58;72.63;101306.31;4806229;29;20038;-56
2022/08/09 07:25:43;;;;;;;3.97;2.33;;;;;;;17.78;71.92;101308.63;4805451;29;20456;-56
2022/08/09 07:28:11;;;;;;;4.97;2.55;;;;;;;17.65;72.15;101317.81;4806190;29;20035;-56
2022/08/09 07:30:38;;;;;;;3.58;2.42;;;;;;;17.71;71.99;101326.03;4805773;29;20023;-56
2022/08/09 07:33:04;;;;;;;6.20;2.60;;;;;;;17.64;71.90;101323.47;4806129;29;20117;-56
2022/08/09 07:35:30;;;;;;;5.55;2.63;;;;;;;17.55;72.13;101324.94;4803399;29;20038;-56
2022/08/09 07:37:59;;;;;;;6.82;2.72;;;;;;;17.47;72.53;101325.31;4805973;29;20458;-56
2022/08/09 07:40:25;;;;;;;5.95;2.40;;;;;;;17.61;72.31;101323.97;4803737;29;20042;-56
2022/08/09 07:42:58;;;;;;;4.43;2.97;;;;;;;17.56;71.84;101318.47;4805373;29;20065;-56
2022/08/09 07:45:30;;;;;;;5.45;2.60;;;;;;;17.55;71.96;101320.34;4822109;29;20130;-56
2022/08/09 07:47:58;;;;;;;5.65;2.30;;;;;;;17.51;72.70;101324.59;4812854;29;20027;-56
2022/08/09 07:50:26;;;;;;;6.50;2.28;;;;;;;17.39;72.68;101330.03;4805974;29;20039;-56
2022/08/09 07:52:53;;;;;;;2.90;2.00;;;;;;;17.55;72.54;101322.22;4805108;29;20073;-56
2022/08/09 07:55:20;;;;;;;4.82;2.47;;;;;;;17.59;72.08;101318.78;4823896;29;20041;-56
2022/08/09 07:57:47;;;;;;;8.52;2.42;;;;;;;17.57;72.10;101320.91;4817298;29;20062;-56
2022/08/09 08:00:19;;;;;;;6.15;2.10;;;;;;;17.34;73.14;101321.81;4805572;29;20049;-56
2022/08/09 08:02:46;;;;;;;5.75;2.47;;;;;;;17.50;72.53;101308.59;4805508;29;20053;-56
2022/08/09 08:05:12;;;;;;;7.80;2.58;;;;;;;17.36;73.03;101308.84;4805447;29;20041;-56
2022/08/09 08:07:38;;;;;;;7.68;3.10;;;;;;;17.40;72.89;101311.91;4815368;29;20050;-55
2022/08/09 08:10:06;;;;;;;4.60;2.58;;;;;;;17.48;72.89;101305.28;4823197;29;20036;-56
2022/08/09 08:12:32;;;;;;;3.20;1.92;;;;;;;17.43;73.38;101308.72;4822647;29;20502;-56
2022/08/09 08:14:59;;;;;;;6.05;2.40;;;;;;;17.45;73.03;101300.38;4823609;29;20511;-56
2022/08/09 08:17:25;;;;;;;6.30;2.42;;;;;;;17.42;72.90;101307.06;4822375;29;20445;-56
2022/08/09 08:19:51;;;;;;;3.20;2.67;;;;;;;17.50;73.14;101304.00;4823634;29;20026;-56
2022/08/09 08:22:17;;;;;;;6.55;2.28;;;;;;;17.45;73.43;101305.78;4821161;29;20407;-56
2022/08/09 08:24:43;;;;;;;4.30;2.63;;;;;;;17.33;73.76;101308.53;4823633;29;20054;-56
2022/08/09 08:27:10;;;;;;;5.32;2.40;;;;;;;17.33;73.66;101303.13;4820534;29;20038;-56
2022/08/09 08:29:36;;;;;;;7.20;2.58;;;;;;;17.37;73.88;101301.56;4823539;29;20042;-56
2022/08/09 08:32:02;;;;;;;5.78;2.75;;;;;;;17.10;74.63;101299.41;4807782;29;20031;-56
2022/08/09 08:34:29;;;;;;;5.03;2.78;;;;;;;17.12;74.74;101293.75;4804915;29;20035;-56
2022/08/09 08:36:55;;;;;;;5.22;2.53;;;;;;;17.08;74.74;101301.50;4817068;29;20046;-56
2022/08/09 08:39:21;;;;;;;7.28;2.60;;;;;;;17.05;74.63;101296.59;4823251;29;20414;-56
2022/08/09 08:41:47;;;;;;;5.30;2.75;;;;;;;17.13;74.50;101298.91;4809813;29;20130;-56
2022/08/09 08:44:17;;;;;;;5.50;2.47;;;;;;;17.24;74.26;101296.41;4804673;29;20039;-56
2022/08/09 08:46:44;;;;;;;4.10;2.47;;;;;;;17.14;74.39;101300.56;4819346;29;20054;-56
2022/08/09 08:49:12;;;;;;;5.93;2.38;;;;;;;17.10;74.73;101293.16;4823329;29;20428;-56
2022/08/09 08:51:39;;;;;;;4.38;2.10;;;;;;;17.11;74.45;101294.81;4821873;29;20491;-56
2022/08/09 08:54:06;;;;;;;9.68;2.45;;;;;;;17.20;73.96;101304.19;4820980;29;20044;-56
2022/08/09 08:56:37;;;;;;;8.77;2.60;;;;;;;17.19;74.22;101301.72;4823234;29;20033;-56
2022/08/09 08:59:05;;;;;;;11.52;2.90;;;;;;;17.23;74.74;101303.72;4822030;29;20026;-56
2022/08/09 09:01:34;;;;;;;5.65;2.60;;;;;;;16.99;75.58;101296.69;4823011;29;20054;-56
2022/08/09 09:04:03;;;;;;;8.13;3.05;;;;;;;16.91;76.19;101287.06;4821758;29;20072;-56
2022/08/09 09:06:36;;;;;;;7.80;2.70;;;;;;;16.88;76.25;101295.66;4823381;29;20376;-56
2022/08/09 09:09:04;;;;;;;6.93;3.13;;;;;;;16.86;76.07;101298.59;4821139;29;20031;-56
2022/08/09 09:11:32;;;;;;;6.10;2.92;;;;;;;16.93;75.79;101286.81;4822866;29;20090;-56
2022/08/09 09:14:08;;;;;;;8.45;2.90;;;;;;;16.89;76.50;101295.44;4811926;29;20038;-56
2022/08/09 09:16:34;;;;;;;3.78;2.78;;;;;;;16.86;76.02;101292.38;4823112;29;20053;-55
2022/08/09 09:19:05;;;;;;;6.28;3.03;;;;;;;16.87;76.34;101294.00;4818909;29;20023;-56
2022/08/09 09:21:31;;;;;;;7.18;3.10;;;;;;;16.87;76.26;101294.81;4804828;29;20541;-56
2022/08/09 09:24:04;;;;;;;4.63;2.67;;;;;;;16.85;76.30;101296.13;4809028;29;20707;-56
2022/08/09 09:26:30;;;;;;;5.40;2.90;;;;;;;16.79;76.54;101288.97;4821849;29;20039;-56
2022/08/09 09:28:56;;;;;;;6.60;3.10;;;;;;;16.92;76.35;101285.19;4822756;29;20056;-55
2022/08/09 09:31:23;;;;;;;8.02;2.85;;;;;;;16.67;77.57;101290.84;4813689;29;20076;-56
2022/08/09 09:33:49;;;;;;;8.57;3.47;;;;;;;16.67;77.20;101291.66;4804189;29;20401;-55
2022/08/09 09:36:16;;;;;;;4.65;2.78;;;;;;;16.69;76.98;101291.41;4811551;29;20304;-56
2022/08/09 09:38:49;;;;;;;7.03;3.28;;;;;;;16.68;77.31;101287.06;4822552;29;20510;-56
2022/08/09 09:41:27;;;;;;;7.25;3.67;;;;;;;16.52;78.01;101284.00;4804393;29;20042;-56
2022/08/09 09:43:58;;;;;;;7.63;2.95;;;;;;;16.57;77.68;101284.13;4822366;29;20034;-55
2022/08/09 09:46:35;;;;;;;7.82;2.55;;;;;;;16.60;77.17;101289.06;4809481;29;20058;-55
2022/08/09 09:49:04;;;;;;;5.65;2.78;;;;;;;16.66;77.06;101284.59;4820595;29;20103;-56
2022/08/09 09:51:32;;;;;;;6.55;2.67;;;;;;;16.50;77.14;101288.81;4821199;29;20082;-55
2022/08/09 09:54:04;;;;;;;7.82;2.97;;;;;;;16.49;77.84;101289.03;4821983;29;20105;-56
2022/08/09 09:56:32;;;;;;;8.27;2.92;;;;;;;16.62;77.52;101286.13;4821020;29;20042;-56
2022/08/09 09:58:59;;;;;;;6.43;3.15;;;;;;;16.56;77.47;101281.66;4822398;29;20101;-56
2022/08/09 10:01:27;;;;;;;4.90;2.70;;;;;;;16.42;77.75;101288.34;4812589;29;20184;-56
2022/08/09 10:03:56;;;;;;;5.20;2.83;;;;;;;16.54;76.87;101279.16;4803723;29;20552;-56
2022/08/09 10:06:22;;;;;;;7.88;3.33;;;;;;;16.47;77.16;101280.34;4813187;29;20509;-56
2022/08/09 10:08:50;;;;;;;5.18;2.33;;;;;;;16.64;76.71;101284.81;4822175;29;20030;-56
2022/08/09 10:11:19;;;;;;;4.35;2.90;;;;;;;16.46;77.28;101282.25;4821177;29;20027;-56
2022/08/09 10:13:46;;;;;;;6.22;2.40;;;;;;;16.51;76.95;101278.84;4812564;29;20136;-56
2022/08/09 10:16:13;;;;;;;5.47;2.80;;;;;;;16.59;76.78;101276.59;4804381;29;20046;-56
2022/08/09 10:18:50;;;;;;;5.32;2.67;;;;;;;16.61;76.47;101274.50;4804019;29;20050;-56
2022/08/09 10:21:17;;;;;;;4.00;2.63;;;;;;;16.77;76.09;101277.59;4787998;29;20481;-56
2022/08/09 10:23:43;;;;;;;5.00;2.90;;;;;;;16.61;76.84;101279.91;4804187;29;20039;-56
2022/08/09 10:26:11;;;;;;;5.38;2.58;;;;;;;16.63;77.05;101277.78;4810751;29;20075;-56
2022/08/09 10:28:39;;;;;;;4.57;2.20;;;;;;;16.50;76.93;101280.72;4822576;29;20038;-56
2022/08/09 10:31:07;;;;;;;10.18;2.75;;;;;;;16.48;77.04;101266.59;4819843;29;20123;-56
2022/08/09 10:33:35;;;;;;;5.82;2.40;;;;;;;16.43;77.18;101277.28;4807137;29;20481;-56
2022/08/09 10:36:02;;;;;;;3.78;2.60;;;;;;;16.41;77.51;101279.41;4806832;29;20053;-56
2022/08/09 10:38:29;;;;;;;4.60;2.70;;;;;;;16.41;77.32;101268.59;4813549;29;20038;-56
2022/08/09 10:40:56;;;;;;;7.75;3.00;;;;;;;16.43;77.56;101271.88;4825351;29;20400;-56
2022/08/09 10:43:23;;;;;;;5.35;2.90;;;;;;;16.44;77.54;101273.56;4825167;29;20037;-56
2022/08/09 10:45:49;;;;;;;6.63;3.42;;;;;;;16.27;78.35;101268.03;4823293;29;20175;-56
2022/08/09 10:48:41;;;;;;;6.13;2.30;;;;;;;16.39;77.56;101268.03;4824890;29;20031;-56
2022/08/09 10:51:48;;;;;;;4.60;2.72;;;;;;;16.23;77.10;101261.44;4807101;29;20113;-56
2022/08/09 10:54:14;;;;;;;5.72;2.58;;;;;;;16.22;77.47;101273.28;4809102;29;20515;-56
2022/08/09 10:56:42;;;;;;;6.88;2.60;;;;;;;16.30;76.93;101269.41;4824592;29;20437;-56
2022/08/09 10:59:29;;;;;;;7.07;3.08;;;;;;;16.44;76.17;101264.63;4823605;29;20038;-56
2022/08/09 11:01:56;;;;;;;4.47;2.30;;;;;;;16.32;76.46;101264.59;4823484;29;20062;-56
2022/08/09 11:04:27;;;;;;;6.45;2.53;;;;;;;16.32;76.49;101270.00;4822471;29;20058;-55
2022/08/09 11:07:02;;;;;;;6.20;2.55;;;;;;;16.24;76.36;101264.94;4825125;29;20054;-56
2022/08/09 11:09:37;;;;;;;;;;;;;;;16.23;76.02;101264.13;4823877;29;20113;-56
2022/08/09 11:12:22;;;;;;;5.53;2.50;;;;;;;16.46;75.14;101267.91;4821473;29;20336;-56
2022/08/09 11:14:53;;;;;;;5.68;2.20;;;;;;;16.48;74.91;101266.59;4824269;29;20480;-56
2022/08/09 11:17:19;;;;;;;3.38;2.08;;;;;;;16.43;74.97;101277.28;4822954;29;20047;-56
2022/08/09 11:19:54;;;;;;;5.15;2.30;;;;;;;16.39;75.47;101275.31;4815702;29;20037;-56
2022/08/09 11:22:21;;;;;;;;;;;;;;;16.22;76.04;101272.47;4823752;29;20121;-55
2022/08/09 11:24:57;;;;;;;4.57;2.17;;;;;;;16.41;75.46;101276.72;4822004;29;19921;-56
2022/08/09 11:27:37;;;;;;;4.10;2.42;;;;;;;16.44;75.21;101272.75;4824481;29;20038;-55
2022/08/09 11:30:07;;;;;;;5.50;2.50;;;;;;;16.64;74.71;101279.41;4810681;29;20066;-55
2022/08/09 11:32:45;;;;;;;5.22;2.25;;;;;;;16.32;75.80;101284.34;4822822;29;20041;-56
2022/08/09 11:35:36;;;;;;;4.38;2.03;;;;;;;16.23;76.08;101283.03;4818173;29;20488;-56